createdAt,value
2018-01-29T00:00:39.753Z,0.00
2018-01-29T00:01:39.733Z,0.00
2018-01-29T00:02:39.709Z,0.00
2018-01-29T00:03:39.686Z,0.00
2018-01-29T00:04:39.665Z,0.00
2018-01-29T00:05:39.644Z,0.00
2018-01-29T00:06:39.621Z,0.00
2018-01-29T00:07:39.600Z,0.00
2018-01-29T00:08:39.577Z,0.00
2018-01-29T00:09:39.556Z,0.00
2018-01-29T00:10:39.534Z,0.00
2018-01-29T00:11:39.510Z,0.00
2018-01-29T00:12:39.489Z,0.00
2018-01-29T00:13:39.467Z,0.00
2018-01-29T00:14:39.445Z,0.00
2018-01-29T00:15:39.424Z,0.00
2018-01-29T00:16:39.400Z,0.00
2018-01-29T00:17:39.381Z,0.00
2018-01-29T00:18:39.359Z,0.00
2018-01-29T00:19:39.335Z,0.00
2018-01-29T00:20:39.314Z,0.00
2018-01-29T00:21:39.291Z,0.00
2018-01-29T00:22:39.270Z,0.00
2018-01-29T00:23:39.249Z,0.00
2018-01-29T00:24:39.228Z,0.00
2018-01-29T00:25:39.205Z,0.00
2018-01-29T00:26:39.183Z,0.00
2018-01-29T00:27:39.161Z,0.00
2018-01-29T00:28:39.142Z,0.00
2018-01-29T00:29:39.118Z,0.00
2018-01-29T00:30:39.099Z,0.00
2018-01-29T00:31:39.080Z,0.00
2018-01-29T00:32:39.054Z,0.00
2018-01-29T00:33:39.037Z,0.00
2018-01-29T00:34:39.010Z,0.00
2018-01-29T00:35:38.985Z,0.00
2018-01-29T00:36:38.965Z,0.00
2018-01-29T00:37:38.944Z,0.00
2018-01-29T00:38:38.922Z,0.00
2018-01-29T00:39:38.900Z,0.00
2018-01-29T00:40:38.877Z,0.00
2018-01-29T00:41:38.857Z,0.00
2018-01-29T00:42:38.834Z,0.00
2018-01-29T00:43:38.813Z,0.00
2018-01-29T00:44:38.792Z,0.00
2018-01-29T00:45:38.770Z,0.00
2018-01-29T00:46:38.749Z,0.00
2018-01-29T00:47:38.733Z,0.00
2018-01-29T00:48:38.705Z,0.00
2018-01-29T00:49:38.687Z,0.00
2018-01-29T00:50:38.665Z,0.00
2018-01-29T00:51:38.646Z,0.00
2018-01-29T00:52:38.626Z,0.00
2018-01-29T00:53:38.603Z,0.00
2018-01-29T00:54:38.576Z,0.00
2018-01-29T00:55:38.555Z,0.00
2018-01-29T00:56:38.535Z,0.00
2018-01-29T00:57:38.511Z,0.00
2018-01-29T00:58:38.491Z,0.00
2018-01-29T00:59:38.467Z,0.00
2018-01-29T01:00:38.496Z,0.00
2018-01-29T01:01:38.427Z,0.00
2018-01-29T01:02:38.405Z,0.00
2018-01-29T01:03:38.383Z,0.00
2018-01-29T01:04:38.360Z,0.00
2018-01-29T01:05:38.340Z,0.00
2018-01-29T01:06:38.318Z,0.00
2018-01-29T01:07:38.296Z,0.00
2018-01-29T01:08:38.275Z,0.00
2018-01-29T01:09:38.254Z,0.00
2018-01-29T01:10:38.232Z,0.00
2018-01-29T01:11:38.210Z,0.00
2018-01-29T01:12:38.189Z,0.00
2018-01-29T01:13:38.167Z,0.00
2018-01-29T01:14:38.146Z,0.00
2018-01-29T01:15:38.124Z,0.00
2018-01-29T01:16:38.105Z,0.00
2018-01-29T01:17:38.080Z,0.00
2018-01-29T01:18:38.060Z,0.00
2018-01-29T01:19:38.037Z,0.00
2018-01-29T01:20:38.016Z,0.00
2018-01-29T01:21:37.994Z,0.00
2018-01-29T01:22:37.973Z,0.00
2018-01-29T01:23:37.952Z,0.00
2018-01-29T01:24:37.930Z,0.00
2018-01-29T01:25:37.909Z,0.00
2018-01-29T01:26:37.887Z,0.00
2018-01-29T01:27:37.863Z,0.00
2018-01-29T01:28:37.843Z,0.00
2018-01-29T01:29:37.821Z,0.00
2018-01-29T01:30:37.800Z,0.00
2018-01-29T01:31:37.777Z,0.00
2018-01-29T01:32:37.755Z,0.00
2018-01-29T01:33:37.734Z,0.00
2018-01-29T01:34:37.713Z,0.00
2018-01-29T01:35:37.691Z,0.00
2018-01-29T01:36:37.668Z,0.00
2018-01-29T01:37:37.647Z,0.00
2018-01-29T01:38:37.635Z,0.00
2018-01-29T01:39:37.605Z,0.00
2018-01-29T01:40:37.583Z,0.00
2018-01-29T01:41:37.561Z,0.00
2018-01-29T01:42:37.540Z,0.00
2018-01-29T01:43:37.517Z,0.00
2018-01-29T01:44:37.496Z,0.00
2018-01-29T01:45:37.477Z,0.00
2018-01-29T01:46:37.454Z,0.00
2018-01-29T01:47:37.430Z,0.00
2018-01-29T01:48:37.410Z,0.00
2018-01-29T01:49:37.388Z,0.00
2018-01-29T01:50:37.368Z,0.00
2018-01-29T01:51:37.345Z,0.00
2018-01-29T01:52:37.324Z,0.00
2018-01-29T01:53:37.303Z,0.00
2018-01-29T01:54:37.281Z,0.00
2018-01-29T01:55:37.259Z,0.00
2018-01-29T01:56:37.238Z,0.00
2018-01-29T01:57:37.217Z,0.00
2018-01-29T01:58:37.195Z,0.00
2018-01-29T01:59:37.174Z,0.00
2018-01-29T02:00:37.153Z,0.00
2018-01-29T02:01:37.131Z,0.00
2018-01-29T02:02:37.111Z,0.00
2018-01-29T02:03:37.088Z,0.00
2018-01-29T02:04:37.067Z,0.00
2018-01-29T02:05:37.047Z,0.00
2018-01-29T02:06:37.024Z,0.00
2018-01-29T02:07:37.005Z,0.00
2018-01-29T02:08:36.980Z,0.00
2018-01-29T02:09:36.961Z,0.00
2018-01-29T02:10:36.938Z,0.00
2018-01-29T02:11:36.922Z,0.00
2018-01-29T02:12:36.897Z,0.00
2018-01-29T02:13:36.876Z,0.00
2018-01-29T02:14:36.854Z,0.00
2018-01-29T02:15:36.832Z,0.00
2018-01-29T02:16:36.810Z,0.00
2018-01-29T02:17:36.788Z,0.00
2018-01-29T02:18:36.767Z,0.00
2018-01-29T02:19:36.746Z,0.00
2018-01-29T02:20:36.723Z,0.00
2018-01-29T02:21:36.702Z,0.00
2018-01-29T02:22:36.682Z,0.00
2018-01-29T02:23:36.658Z,0.00
2018-01-29T02:24:36.641Z,0.00
2018-01-29T02:25:36.617Z,0.00
2018-01-29T02:26:36.594Z,0.00
2018-01-29T02:27:36.571Z,0.00
2018-01-29T02:28:36.550Z,0.00
2018-01-29T02:29:36.529Z,0.00
2018-01-29T02:30:36.509Z,0.00
2018-01-29T02:31:36.488Z,0.00
2018-01-29T02:32:36.465Z,0.00
2018-01-29T02:33:36.445Z,0.00
2018-01-29T02:34:36.423Z,0.00
2018-01-29T02:35:36.400Z,0.00
2018-01-29T02:36:36.378Z,0.00
2018-01-29T02:37:36.358Z,0.00
2018-01-29T02:38:36.336Z,0.00
2018-01-29T02:39:36.316Z,0.00
2018-01-29T02:40:36.301Z,0.00
2018-01-29T02:41:36.271Z,0.00
2018-01-29T02:42:36.251Z,0.00
2018-01-29T02:43:36.227Z,0.00
2018-01-29T02:44:36.206Z,0.00
2018-01-29T02:45:36.185Z,0.00
2018-01-29T02:46:36.164Z,0.00
2018-01-29T02:47:36.142Z,0.00
2018-01-29T02:48:36.120Z,0.00
2018-01-29T02:49:36.099Z,0.00
2018-01-29T02:50:36.077Z,0.00
2018-01-29T02:51:36.055Z,0.00
2018-01-29T02:52:36.033Z,0.00
2018-01-29T02:53:36.013Z,0.00
2018-01-29T02:54:35.990Z,0.00
2018-01-29T02:55:35.970Z,0.00
2018-01-29T02:56:35.950Z,0.00
2018-01-29T02:57:35.924Z,0.00
2018-01-29T02:58:35.903Z,0.00
2018-01-29T02:59:35.884Z,0.00
2018-01-29T03:00:35.864Z,0.00
2018-01-29T03:01:35.839Z,0.00
2018-01-29T03:02:35.853Z,0.00
2018-01-29T03:03:35.795Z,0.00
2018-01-29T03:04:35.774Z,0.00
2018-01-29T03:05:35.751Z,0.00
2018-01-29T03:06:35.731Z,0.00
2018-01-29T03:07:35.709Z,0.00
2018-01-29T03:08:35.687Z,0.00
2018-01-29T03:09:35.669Z,0.00
2018-01-29T03:10:35.644Z,0.00
2018-01-29T03:11:35.623Z,0.00
2018-01-29T03:12:35.601Z,0.00
2018-01-29T03:13:35.579Z,0.00
2018-01-29T03:14:35.558Z,0.00
2018-01-29T03:15:35.536Z,0.00
2018-01-29T03:16:35.513Z,0.00
2018-01-29T03:17:35.494Z,0.00
2018-01-29T03:18:35.472Z,0.00
2018-01-29T03:19:35.449Z,0.00
2018-01-29T03:20:35.428Z,0.00
2018-01-29T03:21:35.406Z,0.00
2018-01-29T03:22:35.387Z,0.00
2018-01-29T03:23:35.362Z,0.00
2018-01-29T03:24:35.342Z,0.00
2018-01-29T03:25:35.321Z,0.00
2018-01-29T03:26:35.299Z,0.00
2018-01-29T03:27:35.277Z,0.00
2018-01-29T03:28:35.256Z,0.00
2018-01-29T03:29:35.235Z,0.00
2018-01-29T03:30:35.214Z,0.00
2018-01-29T03:31:35.191Z,0.00
2018-01-29T03:32:35.170Z,0.00
2018-01-29T03:33:35.148Z,0.00
2018-01-29T03:34:35.126Z,0.00
2018-01-29T03:35:35.105Z,0.00
2018-01-29T03:36:35.084Z,0.00
2018-01-29T03:37:35.062Z,0.00
2018-01-29T03:38:35.041Z,0.00
2018-01-29T03:39:35.019Z,0.00
2018-01-29T03:40:34.998Z,0.00
2018-01-29T03:41:34.976Z,0.00
2018-01-29T03:42:34.954Z,0.00
2018-01-29T03:43:34.973Z,0.00
2018-01-29T03:44:34.911Z,0.00
2018-01-29T03:45:34.891Z,0.00
2018-01-29T03:46:34.868Z,0.00
2018-01-29T03:47:34.845Z,0.00
2018-01-29T03:48:34.824Z,0.00
2018-01-29T03:49:34.804Z,0.00
2018-01-29T03:50:34.780Z,0.00
2018-01-29T03:51:34.756Z,0.00
2018-01-29T03:52:34.761Z,0.00
2018-01-29T03:53:34.712Z,0.00
2018-01-29T03:54:34.690Z,0.00
2018-01-29T03:55:34.667Z,0.00
2018-01-29T03:56:34.645Z,0.00
2018-01-29T03:57:34.622Z,0.00
2018-01-29T03:58:34.600Z,0.00
2018-01-29T03:59:34.576Z,0.00
2018-01-29T04:00:34.554Z,0.00
2018-01-29T04:01:34.531Z,0.00
2018-01-29T04:02:34.508Z,0.00
2018-01-29T04:03:34.486Z,0.00
2018-01-29T04:04:34.461Z,0.00
2018-01-29T04:05:34.440Z,0.00
2018-01-29T04:06:34.417Z,0.00
2018-01-29T04:07:34.395Z,0.00
2018-01-29T04:08:34.372Z,0.00
2018-01-29T04:09:34.349Z,0.00
2018-01-29T04:10:34.326Z,0.00
2018-01-29T04:11:34.304Z,0.00
2018-01-29T04:12:34.281Z,0.00
2018-01-29T04:13:34.259Z,0.00
2018-01-29T04:14:34.237Z,0.00
2018-01-29T04:15:34.213Z,0.00
2018-01-29T04:16:34.191Z,0.00
2018-01-29T04:17:34.169Z,0.00
2018-01-29T04:18:34.147Z,0.00
2018-01-29T04:19:34.123Z,0.00
2018-01-29T04:20:34.102Z,0.00
2018-01-29T04:21:34.078Z,0.00
2018-01-29T04:22:34.057Z,0.00
2018-01-29T04:23:34.034Z,0.00
2018-01-29T04:24:34.010Z,0.00
2018-01-29T04:25:33.989Z,0.00
2018-01-29T04:26:33.966Z,0.00
2018-01-29T04:27:33.944Z,0.00
2018-01-29T04:28:33.922Z,0.00
2018-01-29T04:29:33.899Z,0.00
2018-01-29T04:30:33.878Z,0.00
2018-01-29T04:31:33.855Z,0.00
2018-01-29T04:32:33.872Z,0.00
2018-01-29T04:33:33.810Z,0.00
2018-01-29T04:34:33.789Z,0.00
2018-01-29T04:35:33.765Z,0.00
2018-01-29T04:36:33.743Z,0.00
2018-01-29T04:37:33.722Z,0.00
2018-01-29T04:38:33.699Z,0.00
2018-01-29T04:39:33.677Z,0.00
2018-01-29T04:40:33.657Z,0.00
2018-01-29T04:41:33.632Z,0.00
2018-01-29T04:42:33.611Z,0.00
2018-01-29T04:43:33.588Z,0.00
2018-01-29T04:44:33.566Z,0.00
2018-01-29T04:45:33.542Z,0.00
2018-01-29T04:46:33.524Z,0.00
2018-01-29T04:47:33.498Z,0.00
2018-01-29T04:48:33.476Z,0.00
2018-01-29T04:49:33.454Z,0.00
2018-01-29T04:50:33.433Z,0.00
2018-01-29T04:51:33.409Z,0.00
2018-01-29T04:52:33.388Z,0.00
2018-01-29T04:53:33.405Z,0.00
2018-01-29T04:54:33.344Z,0.00
2018-01-29T04:55:33.322Z,0.00
2018-01-29T04:56:33.299Z,0.00
2018-01-29T04:57:33.277Z,0.00
2018-01-29T04:58:33.255Z,0.00
2018-01-29T04:59:33.232Z,0.00
2018-01-29T05:00:33.211Z,0.00
2018-01-29T05:01:33.192Z,0.00
2018-01-29T05:02:33.177Z,0.00
2018-01-29T05:03:33.145Z,0.00
2018-01-29T05:04:33.123Z,0.00
2018-01-29T05:05:33.100Z,0.00
2018-01-29T05:06:33.080Z,0.00
2018-01-29T05:07:33.056Z,0.00
2018-01-29T05:08:33.034Z,0.00
2018-01-29T05:09:33.012Z,0.00
2018-01-29T05:10:32.989Z,0.00
2018-01-29T05:11:32.967Z,0.00
2018-01-29T05:12:32.948Z,0.00
2018-01-29T05:13:32.924Z,0.00
2018-01-29T05:14:32.903Z,0.00
2018-01-29T05:15:32.880Z,0.00
2018-01-29T05:16:32.858Z,0.00
2018-01-29T05:17:32.837Z,0.00
2018-01-29T05:18:32.814Z,0.00
2018-01-29T05:19:32.796Z,0.00
2018-01-29T05:20:32.770Z,0.00
2018-01-29T05:21:32.748Z,0.00
2018-01-29T05:22:32.726Z,0.00
2018-01-29T05:23:32.703Z,0.00
2018-01-29T05:24:32.680Z,0.00
2018-01-29T05:25:32.659Z,0.00
2018-01-29T05:26:32.637Z,0.00
2018-01-29T05:27:32.614Z,0.00
2018-01-29T05:28:32.594Z,0.00
2018-01-29T05:29:32.570Z,0.00
2018-01-29T05:30:32.548Z,0.00
2018-01-29T05:31:32.531Z,0.00
2018-01-29T05:32:32.502Z,0.00
2018-01-29T05:33:32.480Z,0.00
2018-01-29T05:34:32.458Z,0.00
2018-01-29T05:35:32.435Z,0.00
2018-01-29T05:36:32.412Z,0.00
2018-01-29T05:37:32.392Z,0.00
2018-01-29T05:38:32.374Z,0.00
2018-01-29T05:39:32.345Z,0.00
2018-01-29T05:40:32.322Z,0.00
2018-01-29T05:41:32.299Z,0.00
2018-01-29T05:42:32.278Z,0.00
2018-01-29T05:43:32.254Z,0.00
2018-01-29T05:44:32.233Z,0.00
2018-01-29T05:45:32.208Z,0.00
2018-01-29T05:46:32.186Z,0.00
2018-01-29T05:47:32.164Z,0.00
2018-01-29T05:48:32.140Z,0.00
2018-01-29T05:49:32.118Z,0.00
2018-01-29T05:50:32.096Z,0.00
2018-01-29T05:51:32.072Z,0.00
2018-01-29T05:52:32.049Z,0.00
2018-01-29T05:53:32.026Z,0.00
2018-01-29T05:54:32.004Z,0.00
2018-01-29T05:55:31.980Z,0.00
2018-01-29T05:56:31.956Z,0.00
2018-01-29T05:57:31.934Z,0.00
2018-01-29T05:58:31.918Z,0.00
2018-01-29T05:59:31.889Z,0.00
2018-01-29T06:00:31.865Z,0.00
2018-01-29T06:01:31.842Z,0.00
2018-01-29T06:02:31.821Z,0.00
2018-01-29T06:03:31.797Z,0.00
2018-01-29T06:04:31.776Z,0.00
2018-01-29T06:05:31.752Z,0.00
2018-01-29T06:06:31.733Z,0.00
2018-01-29T06:07:31.705Z,0.00
2018-01-29T06:08:31.683Z,0.00
2018-01-29T06:09:31.660Z,0.00
2018-01-29T06:10:31.637Z,0.00
2018-01-29T06:11:31.613Z,0.00
2018-01-29T06:12:31.591Z,0.00
2018-01-29T06:13:31.568Z,0.00
2018-01-29T06:14:31.546Z,0.00
2018-01-29T06:15:31.522Z,0.00
2018-01-29T06:16:31.500Z,0.00
2018-01-29T06:17:31.477Z,0.00
2018-01-29T06:18:31.455Z,0.00
2018-01-29T06:19:31.430Z,0.00
2018-01-29T06:20:31.408Z,0.00
2018-01-29T06:21:31.386Z,0.00
2018-01-29T06:22:31.363Z,0.00
2018-01-29T06:23:31.339Z,0.00
2018-01-29T06:24:31.317Z,0.00
2018-01-29T06:25:31.294Z,0.00
2018-01-29T06:26:31.271Z,0.00
2018-01-29T06:27:31.247Z,0.00
2018-01-29T06:28:31.225Z,0.00
2018-01-29T06:29:31.202Z,0.00
2018-01-29T06:30:31.180Z,0.00
2018-01-29T06:31:31.156Z,0.00
2018-01-29T06:32:31.133Z,0.00
2018-01-29T06:33:31.110Z,0.00
2018-01-29T06:34:31.087Z,0.00
2018-01-29T06:35:31.064Z,0.00
2018-01-29T06:36:31.042Z,0.00
2018-01-29T06:37:31.025Z,0.00
2018-01-29T06:38:30.997Z,0.00
2018-01-29T06:39:30.974Z,0.00
2018-01-29T06:40:30.951Z,0.00
2018-01-29T06:41:30.929Z,0.00
2018-01-29T06:42:30.906Z,0.00
2018-01-29T06:43:30.883Z,0.00
2018-01-29T06:44:30.860Z,0.00
2018-01-29T06:45:30.837Z,0.00
2018-01-29T06:46:30.815Z,0.00
2018-01-29T06:47:30.792Z,0.00
2018-01-29T06:48:30.770Z,0.00
2018-01-29T06:49:30.745Z,0.00
2018-01-29T06:50:30.724Z,0.00
2018-01-29T06:51:30.700Z,0.00
2018-01-29T06:52:30.685Z,0.00
2018-01-29T06:53:30.654Z,0.00
2018-01-29T06:54:30.632Z,0.00
2018-01-29T06:55:30.609Z,0.00
2018-01-29T06:56:30.587Z,0.00
2018-01-29T06:57:30.564Z,0.00
2018-01-29T06:58:30.543Z,0.00
2018-01-29T06:59:30.517Z,0.00
2018-01-29T07:00:30.496Z,0.00
2018-01-29T07:01:30.473Z,4.00
2018-01-29T07:02:30.451Z,0.00
2018-01-29T07:03:30.428Z,0.00
2018-01-29T07:04:30.405Z,0.00
2018-01-29T07:05:30.382Z,0.00
2018-01-29T07:06:30.358Z,0.00
2018-01-29T07:07:30.336Z,4.00
2018-01-29T07:08:30.314Z,0.00
2018-01-29T07:09:30.291Z,0.00
2018-01-29T07:10:30.269Z,4.00
2018-01-29T07:11:30.246Z,4.00
2018-01-29T07:12:30.223Z,4.00
2018-01-29T07:13:30.199Z,8.00
2018-01-29T07:14:30.177Z,4.00
2018-01-29T07:15:30.155Z,4.00
2018-01-29T07:16:30.132Z,4.00
2018-01-29T07:17:30.109Z,4.00
2018-01-29T07:18:30.087Z,4.00
2018-01-29T07:19:30.104Z,8.00
2018-01-29T07:20:30.042Z,8.00
2018-01-29T07:21:30.019Z,8.00
2018-01-29T07:22:29.996Z,8.00
2018-01-29T07:23:29.973Z,8.00
2018-01-29T07:24:29.952Z,8.00
2018-01-29T07:25:29.929Z,8.00
2018-01-29T07:26:29.907Z,12.00
2018-01-29T07:27:29.882Z,12.00
2018-01-29T07:28:29.862Z,16.00
2018-01-29T07:29:29.869Z,12.00
2018-01-29T07:30:29.817Z,12.00
2018-01-29T07:31:29.795Z,16.00
2018-01-29T07:32:29.771Z,12.00
2018-01-29T07:33:29.785Z,20.00
2018-01-29T07:34:29.729Z,24.00
2018-01-29T07:35:29.705Z,24.00
2018-01-29T07:36:29.683Z,28.00
2018-01-29T07:37:29.664Z,28.00
2018-01-29T07:38:29.641Z,36.00
2018-01-29T07:39:29.615Z,28.00
2018-01-29T07:40:29.594Z,32.00
2018-01-29T07:41:29.572Z,32.00
2018-01-29T07:42:29.552Z,36.00
2018-01-29T07:43:29.528Z,36.00
2018-01-29T07:44:29.506Z,36.00
2018-01-29T07:45:29.485Z,32.00
2018-01-29T07:46:29.469Z,40.00
2018-01-29T07:47:29.440Z,36.00
2018-01-29T07:48:29.416Z,40.00
2018-01-29T07:49:29.396Z,36.00
2018-01-29T07:50:29.374Z,40.00
2018-01-29T07:51:29.351Z,44.00
2018-01-29T07:52:29.329Z,40.00
2018-01-29T07:53:29.306Z,32.00
2018-01-29T07:54:29.284Z,32.00
2018-01-29T07:55:29.263Z,36.00
2018-01-29T07:56:29.239Z,36.00
2018-01-29T07:57:29.218Z,56.00
2018-01-29T07:58:29.195Z,48.00
2018-01-29T07:59:29.173Z,52.00
2018-01-29T08:00:29.151Z,36.00
2018-01-29T08:01:29.128Z,48.00
2018-01-29T08:02:29.107Z,36.00
2018-01-29T08:03:29.083Z,40.00
2018-01-29T08:04:29.061Z,40.00
2018-01-29T08:05:29.040Z,48.00
2018-01-29T08:06:29.018Z,44.00
2018-01-29T08:07:28.995Z,44.00
2018-01-29T08:08:28.973Z,48.00
2018-01-29T08:09:28.951Z,56.00
2018-01-29T08:10:28.929Z,64.00
2018-01-29T08:11:28.906Z,64.00
2018-01-29T08:12:28.884Z,60.00
2018-01-29T08:13:28.863Z,52.00
2018-01-29T08:14:28.840Z,84.00
2018-01-29T08:15:28.821Z,100.00
2018-01-29T08:16:28.795Z,128.00
2018-01-29T08:17:28.773Z,72.00
2018-01-29T08:18:28.751Z,100.00
2018-01-29T08:19:28.728Z,112.00
2018-01-29T08:20:28.708Z,96.00
2018-01-29T08:21:28.684Z,88.00
2018-01-29T08:22:28.662Z,72.00
2018-01-29T08:23:28.639Z,60.00
2018-01-29T08:24:28.618Z,68.00
2018-01-29T08:25:28.596Z,64.00
2018-01-29T08:26:28.574Z,64.00
2018-01-29T08:27:28.551Z,40.00
2018-01-29T08:28:28.529Z,48.00
2018-01-29T08:29:28.507Z,60.00
2018-01-29T08:30:28.485Z,72.00
2018-01-29T08:31:28.463Z,68.00
2018-01-29T08:32:28.441Z,80.00
2018-01-29T08:33:28.419Z,80.00
2018-01-29T08:34:28.397Z,76.00
2018-01-29T08:35:28.374Z,108.00
2018-01-29T08:36:28.351Z,84.00
2018-01-29T08:37:28.332Z,104.00
2018-01-29T08:38:28.309Z,108.00
2018-01-29T08:39:28.286Z,116.00
2018-01-29T08:40:28.265Z,84.00
2018-01-29T08:41:28.242Z,84.00
2018-01-29T08:42:28.221Z,68.00
2018-01-29T08:43:28.198Z,72.00
2018-01-29T08:44:28.176Z,64.00
2018-01-29T08:45:28.156Z,60.00
2018-01-29T08:46:28.132Z,64.00
2018-01-29T08:47:28.109Z,64.00
2018-01-29T08:48:28.086Z,68.00
2018-01-29T08:49:28.065Z,64.00
2018-01-29T08:50:28.043Z,68.00
2018-01-29T08:51:28.021Z,92.00
2018-01-29T08:52:28.001Z,64.00
2018-01-29T08:53:27.976Z,72.00
2018-01-29T08:54:27.954Z,68.00
2018-01-29T08:55:27.940Z,108.00
2018-01-29T08:56:27.908Z,132.00
2018-01-29T08:57:27.887Z,92.00
2018-01-29T08:58:27.865Z,108.00
2018-01-29T08:59:27.842Z,116.00
2018-01-29T09:00:27.820Z,124.00
2018-01-29T09:01:27.798Z,180.00
2018-01-29T09:02:27.776Z,244.00
2018-01-29T09:03:27.753Z,204.00
2018-01-29T09:04:27.730Z,216.00
2018-01-29T09:05:27.710Z,200.00
2018-01-29T09:06:27.687Z,216.00
2018-01-29T09:07:27.664Z,220.00
2018-01-29T09:08:27.642Z,288.00
2018-01-29T09:09:27.620Z,208.00
2018-01-29T09:10:27.600Z,332.00
2018-01-29T09:11:27.574Z,304.00
2018-01-29T09:12:27.553Z,312.00
2018-01-29T09:13:27.531Z,232.00
2018-01-29T09:14:27.508Z,268.00
2018-01-29T09:15:27.486Z,356.00
2018-01-29T09:16:27.463Z,264.00
2018-01-29T09:17:27.454Z,364.00
2018-01-29T09:18:27.420Z,408.00
2018-01-29T09:19:27.397Z,328.00
2018-01-29T09:20:27.375Z,464.00
2018-01-29T09:21:27.352Z,412.00
2018-01-29T09:22:27.330Z,296.00
2018-01-29T09:23:27.308Z,260.00
2018-01-29T09:24:27.284Z,260.00
2018-01-29T09:25:27.263Z,284.00
2018-01-29T09:26:27.242Z,340.00
2018-01-29T09:27:27.218Z,484.00
2018-01-29T09:28:27.197Z,360.00
2018-01-29T09:29:27.179Z,392.00
2018-01-29T09:30:27.153Z,400.00
2018-01-29T09:31:27.131Z,608.00
2018-01-29T09:32:27.108Z,664.00
2018-01-29T09:33:27.087Z,560.00
2018-01-29T09:34:27.064Z,572.00
2018-01-29T09:35:27.042Z,556.00
2018-01-29T09:36:27.020Z,380.00
2018-01-29T09:37:26.997Z,352.00
2018-01-29T09:38:26.976Z,372.00
2018-01-29T09:39:26.952Z,360.00
2018-01-29T09:40:26.934Z,388.00
2018-01-29T09:41:26.909Z,408.00
2018-01-29T09:42:26.887Z,440.00
2018-01-29T09:43:26.864Z,384.00
2018-01-29T09:44:26.955Z,336.00
2018-01-29T09:45:26.819Z,368.00
2018-01-29T09:46:26.798Z,356.00
2018-01-29T09:47:26.775Z,400.00
2018-01-29T09:48:26.753Z,360.00
2018-01-29T09:49:26.732Z,312.00
2018-01-29T09:50:26.711Z,320.00
2018-01-29T09:51:26.687Z,348.00
2018-01-29T09:52:26.671Z,340.00
2018-01-29T09:53:26.643Z,268.00
2018-01-29T09:54:26.621Z,276.00
2018-01-29T09:55:26.599Z,260.00
2018-01-29T09:56:26.577Z,304.00
2018-01-29T09:57:26.555Z,320.00
2018-01-29T09:58:26.534Z,336.00
2018-01-29T09:59:26.511Z,384.00
2018-01-29T10:00:26.491Z,376.00
2018-01-29T10:01:26.467Z,332.00
2018-01-29T10:02:26.444Z,368.00
2018-01-29T10:03:26.422Z,392.00
2018-01-29T10:04:26.401Z,408.00
2018-01-29T10:05:26.381Z,412.00
2018-01-29T10:06:26.356Z,456.00
2018-01-29T10:07:26.332Z,604.00
2018-01-29T10:08:26.310Z,560.00
2018-01-29T10:09:26.289Z,480.00
2018-01-29T10:10:26.266Z,464.00
2018-01-29T10:11:26.244Z,368.00
2018-01-29T10:12:26.223Z,364.00
2018-01-29T10:13:26.201Z,476.00
2018-01-29T10:14:26.180Z,544.00
2018-01-29T10:15:26.156Z,516.00
2018-01-29T10:16:26.134Z,472.00
2018-01-29T10:17:26.113Z,484.00
2018-01-29T10:18:26.092Z,404.00
2018-01-29T10:19:27.371Z,332.00
2018-01-29T10:20:26.047Z,312.00
2018-01-29T10:21:26.026Z,292.00
2018-01-29T10:22:26.006Z,416.00
2018-01-29T10:23:25.982Z,356.00
2018-01-29T10:24:25.958Z,380.00
2018-01-29T10:25:25.955Z,372.00
2018-01-29T10:26:25.915Z,376.00
2018-01-29T10:27:25.893Z,324.00
2018-01-29T10:28:25.871Z,324.00
2018-01-29T10:29:25.851Z,380.00
2018-01-29T10:30:25.827Z,336.00
2018-01-29T10:31:25.804Z,316.00
2018-01-29T10:32:25.783Z,300.00
2018-01-29T10:33:25.760Z,316.00
2018-01-29T10:34:25.742Z,284.00
2018-01-29T10:35:25.717Z,312.00
2018-01-29T10:36:25.695Z,296.00
2018-01-29T10:37:25.673Z,296.00
2018-01-29T10:38:25.650Z,272.00
2018-01-29T10:39:25.630Z,260.00
2018-01-29T10:40:25.606Z,292.00
2018-01-29T10:41:25.585Z,300.00
2018-01-29T10:42:25.563Z,268.00
2018-01-29T10:43:25.540Z,308.00
2018-01-29T10:44:25.518Z,360.00
2018-01-29T10:45:25.497Z,304.00
2018-01-29T10:46:25.478Z,252.00
2018-01-29T10:47:25.452Z,240.00
2018-01-29T10:48:25.430Z,220.00
2018-01-29T10:49:25.445Z,256.00
2018-01-29T10:50:25.385Z,264.00
2018-01-29T10:51:25.362Z,248.00
2018-01-29T10:52:25.342Z,240.00
2018-01-29T10:53:25.320Z,216.00
2018-01-29T10:54:25.297Z,264.00
2018-01-29T10:55:25.275Z,244.00
2018-01-29T10:56:25.252Z,244.00
2018-01-29T10:57:25.232Z,256.00
2018-01-29T10:58:25.210Z,236.00
2018-01-29T10:59:25.186Z,236.00
2018-01-29T11:00:25.166Z,236.00
2018-01-29T11:01:25.175Z,232.00
2018-01-29T11:02:25.122Z,308.00
2018-01-29T11:03:25.098Z,276.00
2018-01-29T11:04:25.078Z,296.00
2018-01-29T11:05:25.056Z,288.00
2018-01-29T11:06:25.080Z,288.00
2018-01-29T11:07:25.012Z,280.00
2018-01-29T11:08:24.990Z,272.00
2018-01-29T11:09:24.968Z,228.00
2018-01-29T11:10:24.946Z,244.00
2018-01-29T11:11:24.922Z,272.00
2018-01-29T11:12:24.901Z,272.00
2018-01-29T11:13:24.878Z,288.00
2018-01-29T11:14:24.858Z,344.00
2018-01-29T11:15:24.835Z,384.00
2018-01-29T11:16:24.812Z,348.00
2018-01-29T11:17:24.791Z,332.00
2018-01-29T11:18:24.768Z,328.00
2018-01-29T11:19:24.747Z,284.00
2018-01-29T11:20:24.725Z,236.00
2018-01-29T11:21:24.705Z,216.00
2018-01-29T11:22:24.681Z,260.00
2018-01-29T11:23:24.659Z,224.00
2018-01-29T11:24:24.637Z,300.00
2018-01-29T11:25:24.615Z,316.00
2018-01-29T11:26:24.592Z,288.00
2018-01-29T11:27:24.572Z,288.00
2018-01-29T11:28:24.550Z,332.00
2018-01-29T11:29:24.527Z,432.00
2018-01-29T11:30:24.505Z,416.00
2018-01-29T11:31:24.482Z,472.00
2018-01-29T11:32:24.459Z,468.00
2018-01-29T11:33:24.438Z,584.00
2018-01-29T11:34:24.417Z,680.00
2018-01-29T11:35:24.392Z,640.00
2018-01-29T11:36:24.372Z,568.00
2018-01-29T11:37:24.350Z,572.00
2018-01-29T11:38:24.328Z,464.00
2018-01-29T11:39:24.305Z,520.00
2018-01-29T11:40:24.282Z,472.00
2018-01-29T11:41:24.262Z,508.00
2018-01-29T11:42:24.238Z,564.00
2018-01-29T11:43:24.217Z,540.00
2018-01-29T11:44:24.195Z,472.00
2018-01-29T11:45:24.173Z,500.00
2018-01-29T11:46:24.151Z,492.00
2018-01-29T11:47:24.127Z,488.00
2018-01-29T11:48:24.106Z,608.00
2018-01-29T11:49:24.084Z,684.00
2018-01-29T11:50:24.062Z,656.00
2018-01-29T11:51:24.040Z,592.00
2018-01-29T11:52:24.020Z,504.00
2018-01-29T11:53:23.997Z,536.00
2018-01-29T11:54:23.974Z,568.00
2018-01-29T11:55:23.951Z,572.00
2018-01-29T11:56:23.934Z,496.00
2018-01-29T11:57:23.911Z,408.00
2018-01-29T11:58:23.885Z,364.00
2018-01-29T11:59:23.864Z,344.00
2018-01-29T12:00:23.842Z,324.00
2018-01-29T12:01:23.820Z,344.00
2018-01-29T12:02:23.799Z,380.00
2018-01-29T12:03:23.776Z,368.00
2018-01-29T12:04:23.754Z,344.00
2018-01-29T12:05:23.732Z,352.00
2018-01-29T12:06:23.709Z,380.00
2018-01-29T12:07:23.688Z,516.00
2018-01-29T12:08:23.665Z,544.00
2018-01-29T12:09:23.644Z,484.00
2018-01-29T12:10:23.622Z,436.00
2018-01-29T12:11:23.599Z,484.00
2018-01-29T12:12:23.578Z,472.00
2018-01-29T12:13:23.555Z,480.00
2018-01-29T12:14:23.534Z,544.00
2018-01-29T12:15:23.511Z,540.00
2018-01-29T12:16:23.489Z,456.00
2018-01-29T12:17:23.468Z,520.00
2018-01-29T12:18:23.446Z,604.00
2018-01-29T12:19:23.423Z,560.00
2018-01-29T12:20:23.402Z,536.00
2018-01-29T12:21:23.381Z,524.00
2018-01-29T12:22:23.358Z,572.00
2018-01-29T12:23:23.335Z,576.00
2018-01-29T12:24:23.369Z,644.00
2018-01-29T12:25:23.291Z,800.00
2018-01-29T12:26:23.270Z,852.00
2018-01-29T12:27:23.245Z,776.00
2018-01-29T12:28:23.225Z,792.00
2018-01-29T12:29:23.203Z,872.00
2018-01-29T12:30:23.182Z,820.00
2018-01-29T12:31:23.159Z,656.00
2018-01-29T12:32:23.139Z,588.00
2018-01-29T12:33:23.115Z,792.00
2018-01-29T12:34:23.093Z,820.00
2018-01-29T12:35:23.071Z,752.00
2018-01-29T12:36:23.049Z,528.00
2018-01-29T12:37:23.028Z,548.00
2018-01-29T12:38:23.005Z,464.00
2018-01-29T12:39:22.982Z,676.00
2018-01-29T12:40:22.961Z,732.00
2018-01-29T12:41:22.939Z,624.00
2018-01-29T12:42:22.917Z,716.00
2018-01-29T12:43:22.896Z,820.00
2018-01-29T12:44:22.872Z,720.00
2018-01-29T12:45:22.851Z,624.00
2018-01-29T12:46:22.829Z,576.00
2018-01-29T12:47:22.806Z,640.00
2018-01-29T12:48:22.784Z,800.00
2018-01-29T12:49:22.763Z,824.00
2018-01-29T12:50:22.741Z,672.00
2018-01-29T12:51:22.718Z,600.00
2018-01-29T12:52:22.700Z,616.00
2018-01-29T12:53:22.675Z,756.00
2018-01-29T12:54:22.652Z,732.00
2018-01-29T12:55:22.629Z,804.00
2018-01-29T12:56:22.609Z,884.00
2018-01-29T12:57:22.587Z,712.00
2018-01-29T12:58:22.565Z,552.00